createdAt,value
2022-11-01T00:01:37.627Z,23.30
2022-11-01T00:03:40.927Z,20.20
2022-11-01T00:05:43.973Z,32.83
2022-11-01T00:07:47.248Z,23.87
2022-11-01T00:09:50.267Z,18.83
2022-11-01T00:11:53.336Z,23.07
2022-11-01T00:13:56.467Z,24.33
2022-11-01T00:15:59.604Z,19.77
2022-11-01T00:18:04.110Z,29.07
2022-11-01T00:20:08.782Z,21.73
2022-11-01T00:22:11.973Z,23.23
2022-11-01T00:24:15.005Z,26.03
2022-11-01T00:26:19.757Z,25.63
2022-11-01T00:28:22.858Z,22.23
2022-11-01T00:30:25.858Z,18.83
2022-11-01T00:32:28.950Z,23.43
2022-11-01T00:34:33.387Z,23.70
2022-11-01T00:36:37.439Z,21.17
2022-11-01T00:38:40.604Z,18.90
2022-11-01T00:40:43.613Z,24.13
2022-11-01T00:42:46.712Z,22.43
2022-11-01T00:44:49.717Z,18.67
2022-11-01T00:46:52.736Z,16.63
2022-11-01T00:48:55.768Z,36.03
2022-11-01T00:51:00.124Z,27.73
2022-11-01T00:53:03.182Z,17.87
2022-11-01T00:55:07.118Z,15.57
2022-11-01T00:57:10.248Z,16.33
2022-11-01T00:59:13.174Z,16.10
2022-11-01T01:01:16.321Z,15.73
2022-11-01T01:03:19.652Z,17.93
2022-11-01T01:05:22.759Z,17.10
2022-11-01T01:07:27.175Z,15.07
2022-11-01T01:09:30.229Z,19.17
2022-11-01T01:11:33.218Z,16.30
2022-11-01T01:13:36.195Z,20.13
2022-11-01T01:15:39.466Z,22.03
2022-11-01T01:17:42.514Z,20.97
2022-11-01T01:19:45.552Z,20.20
2022-11-01T01:21:48.866Z,16.97
2022-11-01T01:23:54.748Z,18.53
2022-11-01T01:25:57.796Z,18.43
2022-11-01T01:28:01.589Z,19.57
2022-11-01T01:30:06.878Z,18.13
2022-11-01T01:32:10.201Z,22.20
2022-11-01T01:34:13.267Z,20.83
2022-11-01T01:36:16.274Z,15.90
2022-11-01T01:38:19.219Z,17.60
2022-11-01T01:40:23.639Z,16.73
2022-11-01T01:42:28.865Z,16.40
2022-11-01T01:45:10.685Z,16.03
2022-11-01T01:47:20.062Z,25.37
2022-11-01T01:49:23.848Z,20.10
2022-11-01T01:51:28.829Z,18.20
2022-11-01T01:53:34.017Z,35.23
2022-11-01T01:55:43.106Z,27.23
2022-11-01T01:57:46.170Z,47.10
2022-11-01T01:59:49.378Z,36.57
2022-11-01T02:01:53.172Z,21.30
2022-11-01T02:03:56.718Z,18.73
2022-11-01T02:06:01.723Z,19.43
2022-11-01T02:08:06.457Z,26.80
2022-11-01T02:10:10.607Z,26.93
2022-11-01T02:12:15.374Z,21.40
2022-11-01T02:14:19.049Z,30.80
2022-11-01T02:16:48.484Z,27.93
2022-11-01T02:18:57.712Z,16.87
2022-11-01T02:21:17.323Z,32.27
2022-11-01T02:23:52.443Z,28.10
2022-11-01T02:26:07.116Z,20.83
2022-11-01T02:28:22.595Z,23.23
2022-11-01T02:30:26.355Z,19.67
2022-11-01T02:32:42.340Z,26.33
2022-11-01T02:34:47.718Z,27.20
2022-11-01T02:36:57.172Z,18.80
2022-11-01T02:39:01.809Z,23.23
2022-11-01T02:41:09.847Z,18.90
2022-11-01T02:43:17.642Z,18.70
2022-11-01T02:45:28.998Z,19.97
2022-11-01T02:47:34.013Z,19.73
2022-11-01T02:49:39.975Z,18.30
2022-11-01T02:51:44.113Z,19.13
2022-11-01T02:53:47.154Z,18.47
2022-11-01T02:55:53.020Z,22.07
2022-11-01T02:57:57.960Z,19.40
2022-11-01T03:00:04.919Z,18.50
2022-11-01T03:02:10.659Z,19.17
2022-11-01T03:04:15.265Z,19.43
2022-11-01T03:06:24.148Z,20.83
2022-11-01T03:08:30.674Z,23.80
2022-11-01T03:10:39.133Z,16.10
2022-11-01T03:12:50.999Z,18.00
2022-11-01T03:14:56.972Z,16.77
2022-11-01T03:17:01.720Z,16.43
2022-11-01T03:19:08.894Z,19.17
2022-11-01T03:21:17.186Z,18.00
2022-11-01T03:23:24.710Z,20.80
2022-11-01T03:25:39.835Z,16.17
2022-11-01T03:27:43.943Z,18.83
2022-11-01T03:29:56.305Z,22.50
2022-11-01T03:31:59.739Z,17.97
2022-11-01T03:34:04.667Z,16.23
2022-11-01T03:36:13.656Z,17.33
2022-11-01T03:38:21.617Z,16.47
2022-11-01T03:40:26.191Z,17.17
2022-11-01T03:42:29.619Z,17.37
2022-11-01T03:44:35.193Z,16.17
2022-11-01T03:46:38.540Z,17.60
2022-11-01T03:48:41.877Z,16.43
2022-11-01T03:50:48.804Z,17.00
2022-11-01T03:52:52.089Z,15.50
2022-11-01T03:54:56.417Z,18.97
2022-11-01T03:56:59.438Z,16.43
2022-11-01T03:59:02.481Z,15.70
2022-11-01T04:01:05.551Z,16.47
2022-11-01T04:03:09.684Z,18.67
2022-11-01T04:05:13.157Z,15.47
2022-11-01T04:07:16.111Z,16.30
2022-11-01T04:09:19.161Z,15.60
2022-11-01T04:11:23.531Z,20.43
2022-11-01T04:13:26.737Z,17.60
2022-11-01T04:15:47.953Z,18.17
2022-11-01T04:18:08.584Z,15.60
2022-11-01T04:20:29.722Z,17.23
2022-11-01T04:22:32.809Z,22.27
2022-11-01T04:24:35.774Z,22.03
2022-11-01T04:26:40.126Z,18.53
2022-11-01T04:28:44.858Z,17.37
2022-11-01T04:30:47.988Z,17.70
2022-11-01T04:32:51.109Z,17.10
2022-11-01T04:34:54.130Z,21.87
2022-11-01T04:36:57.303Z,17.87
2022-11-01T04:39:00.567Z,18.40
2022-11-01T04:41:03.561Z,18.00
2022-11-01T04:43:07.995Z,17.30
2022-11-01T04:45:11.701Z,17.37
2022-11-01T04:47:14.766Z,19.03
2022-11-01T04:49:17.809Z,22.13
2022-11-01T04:51:20.813Z,21.10
2022-11-01T04:53:23.826Z,20.67
2022-11-01T04:55:26.883Z,18.60
2022-11-01T04:57:29.912Z,18.50
2022-11-01T04:59:34.235Z,22.03
2022-11-01T05:01:37.309Z,17.73
2022-11-01T05:03:40.306Z,16.57
2022-11-01T05:05:43.269Z,16.67
2022-11-01T05:07:46.732Z,16.33
2022-11-01T05:09:49.685Z,16.50
2022-11-01T05:11:52.828Z,18.50
2022-11-01T05:13:56.326Z,16.50
2022-11-01T05:16:19.058Z,16.00
2022-11-01T05:18:23.030Z,15.70
2022-11-01T05:20:26.396Z,14.90
2022-11-01T05:22:29.401Z,17.47
2022-11-01T05:24:32.444Z,17.97
2022-11-01T05:26:35.623Z,18.50
2022-11-01T05:28:38.567Z,16.07
2022-11-01T05:30:42.178Z,17.40
2022-11-01T05:32:46.622Z,15.90
2022-11-01T05:34:49.850Z,16.40
2022-11-01T05:36:52.832Z,17.10
2022-11-01T05:38:57.302Z,16.90
2022-11-01T05:41:02.897Z,13.60
2022-11-01T05:43:06.254Z,15.30
2022-11-01T05:45:10.155Z,12.17
2022-11-01T05:47:17.116Z,15.90
2022-11-01T05:49:22.683Z,13.03
2022-11-01T05:51:25.732Z,12.53
2022-11-01T05:53:28.728Z,14.20
2022-11-01T05:55:31.810Z,13.03
2022-11-01T05:57:34.921Z,13.40
2022-11-01T05:59:37.933Z,14.23
2022-11-01T06:01:41.060Z,12.47
2022-11-01T06:03:43.986Z,14.77
2022-11-01T06:05:49.478Z,14.70
2022-11-01T06:07:52.640Z,12.47
2022-11-01T06:09:55.614Z,10.70
2022-11-01T06:11:58.614Z,11.90
2022-11-01T06:14:01.547Z,11.50
2022-11-01T06:16:06.516Z,16.70
2022-11-01T06:18:09.729Z,11.73
2022-11-01T06:20:13.204Z,11.47
2022-11-01T06:22:17.743Z,14.07
2022-11-01T06:24:20.699Z,13.70
2022-11-01T06:26:23.940Z,12.97
2022-11-01T06:28:26.982Z,14.17
2022-11-01T06:30:30.100Z,15.17
2022-11-01T06:32:33.048Z,16.00
2022-11-01T06:34:40.776Z,15.80
2022-11-01T06:36:45.733Z,11.97
2022-11-01T06:38:50.157Z,14.37
2022-11-01T06:40:53.179Z,18.43
2022-11-01T06:43:00.865Z,15.40
2022-11-01T06:45:04.410Z,17.67
2022-11-01T06:47:07.501Z,18.43
2022-11-01T06:49:14.785Z,17.93
2022-11-01T06:51:21.398Z,17.40
2022-11-01T06:53:24.639Z,17.00
2022-11-01T06:55:29.927Z,14.67
2022-11-01T06:57:33.065Z,13.47
2022-11-01T06:59:36.069Z,16.70
2022-11-01T07:01:39.179Z,12.93
2022-11-01T07:03:42.731Z,14.53
2022-11-01T07:05:45.727Z,15.57
2022-11-01T07:07:48.669Z,19.43
2022-11-01T07:09:51.723Z,15.50
2022-11-01T07:11:58.768Z,14.30
2022-11-01T07:14:01.901Z,11.57
2022-11-01T07:16:05.305Z,13.37
2022-11-01T07:18:09.267Z,11.40
2022-11-01T07:20:12.587Z,10.10
2022-11-01T07:22:15.526Z,13.27
2022-11-01T07:24:18.692Z,11.40
2022-11-01T07:26:22.027Z,8.93
2022-11-01T07:28:26.588Z,11.27
2022-11-01T07:30:29.860Z,13.00
2022-11-01T07:32:36.281Z,16.50
2022-11-01T07:34:42.409Z,13.70
2022-11-01T07:36:45.413Z,13.80
2022-11-01T07:38:48.388Z,15.20
2022-11-01T07:40:53.294Z,16.10
2022-11-01T07:42:58.154Z,9.80
2022-11-01T07:45:02.653Z,14.80
2022-11-01T07:47:05.996Z,17.10
2022-11-01T07:49:09.333Z,16.30
2022-11-01T07:51:12.873Z,13.20
2022-11-01T07:53:18.040Z,12.23
2022-11-01T07:55:21.035Z,16.50
2022-11-01T07:57:24.370Z,12.13
2022-11-01T07:59:27.380Z,10.93
2022-11-01T08:01:31.970Z,9.13
2022-11-01T08:03:35.025Z,11.30
2022-11-01T08:05:38.193Z,6.60
2022-11-01T08:07:41.603Z,8.93
2022-11-01T08:09:44.688Z,9.30
2022-11-01T08:11:47.710Z,14.90
2022-11-01T08:13:50.780Z,15.77
2022-11-01T08:15:54.538Z,16.77
2022-11-01T08:17:59.586Z,7.37
2022-11-01T08:20:02.823Z,8.30
2022-11-01T08:22:05.891Z,10.10
2022-11-01T08:24:09.475Z,10.33
2022-11-01T08:26:12.588Z,10.23
2022-11-01T08:28:17.149Z,10.53
2022-11-01T08:30:21.300Z,12.93
2022-11-01T08:32:24.376Z,7.57
2022-11-01T08:34:30.679Z,5.47
2022-11-01T08:36:34.238Z,5.60
2022-11-01T08:38:37.507Z,6.57
2022-11-01T08:40:41.750Z,5.80
2022-11-01T08:42:45.355Z,8.00
2022-11-01T08:44:48.679Z,4.93
2022-11-01T08:46:54.893Z,6.43
2022-11-01T08:49:00.388Z,4.40
2022-11-01T08:51:05.145Z,6.70
2022-11-01T08:53:09.287Z,4.73
2022-11-01T08:55:12.539Z,3.90
2022-11-01T08:57:16.033Z,4.00
2022-11-01T08:59:19.127Z,3.60
2022-11-01T09:01:23.908Z,7.33
2022-11-01T09:03:27.995Z,4.00
2022-11-01T09:05:31.789Z,4.90
2022-11-01T09:07:36.824Z,3.30
2022-11-01T09:09:40.083Z,4.33
2022-11-01T09:11:43.146Z,3.73
2022-11-01T09:13:46.223Z,11.30
2022-11-01T09:15:49.300Z,5.80
2022-11-01T09:17:52.955Z,7.97
2022-11-01T09:19:56.683Z,5.60
2022-11-01T09:21:59.709Z,4.10
2022-11-01T09:24:07.488Z,2.10
2022-11-01T09:26:11.865Z,3.07
2022-11-01T09:28:15.075Z,3.27
2022-11-01T09:30:18.567Z,2.20
2022-11-01T09:32:21.659Z,3.47
2022-11-01T09:34:29.544Z,3.43
2022-11-01T09:36:32.851Z,4.00
2022-11-01T09:38:37.020Z,5.90
2022-11-01T09:40:45.404Z,4.90
2022-11-01T09:42:48.902Z,6.03
2022-11-01T09:44:55.557Z,7.93
2022-11-01T09:47:02.596Z,7.60
2022-11-01T09:49:09.858Z,7.47
2022-11-01T09:51:17.636Z,4.37
2022-11-01T09:53:23.131Z,4.63
2022-11-01T09:55:35.782Z,4.67
2022-11-01T09:57:46.194Z,3.30
2022-11-01T09:59:57.552Z,2.10
2022-11-01T10:02:11.390Z,2.43
2022-11-01T10:04:42.005Z,2.17
2022-11-01T10:06:47.851Z,3.47
2022-11-01T10:08:59.323Z,2.50
2022-11-01T10:11:12.969Z,2.97
2022-11-01T10:13:30.413Z,3.20
2022-11-01T10:15:42.994Z,3.33
2022-11-01T10:18:02.381Z,2.70
2022-11-01T10:22:17.847Z,2.93
2022-11-01T10:24:24.816Z,2.83
2022-11-01T10:26:31.737Z,1.73
2022-11-01T10:28:43.580Z,2.50
2022-11-01T10:30:50.130Z,2.27
2022-11-01T10:32:55.163Z,2.70
2022-11-01T10:35:01.893Z,2.90
2022-11-01T10:37:15.816Z,3.10
2022-11-01T10:41:53.706Z,1.90
2022-11-01T10:44:02.461Z,3.23
2022-11-01T10:46:08.698Z,2.57
2022-11-01T10:48:17.935Z,3.30
2022-11-01T10:50:22.395Z,2.57
2022-11-01T10:52:28.626Z,2.67
2022-11-01T10:54:33.183Z,2.77
2022-11-01T10:56:41.650Z,2.53
2022-11-01T10:58:48.787Z,3.00
2022-11-01T11:00:54.548Z,2.20
2022-11-01T11:02:59.622Z,16.73
2022-11-01T11:05:02.702Z,8.87
2022-11-01T11:07:13.580Z,2.50
2022-11-01T11:09:23.407Z,3.17
2022-11-01T11:11:38.079Z,2.07
2022-11-01T11:13:42.248Z,4.25
2022-11-01T11:15:48.387Z,2.67
2022-11-01T11:17:56.655Z,4.57
2022-11-01T11:20:04.469Z,2.97
2022-11-01T11:22:08.998Z,5.03
2022-11-01T11:24:19.664Z,2.93
2022-11-01T11:26:22.911Z,6.23
2022-11-01T11:28:30.919Z,2.67
2022-11-01T11:30:36.133Z,2.97
2022-11-01T11:32:43.064Z,4.93
2022-11-01T11:34:56.114Z,3.57
2022-11-01T11:37:00.636Z,5.73
2022-11-01T11:39:06.746Z,4.23
2022-11-01T11:41:14.273Z,3.83
2022-11-01T11:43:26.191Z,5.60
2022-11-01T11:45:31.039Z,3.77
2022-11-01T11:47:39.252Z,4.67
2022-11-01T11:49:43.096Z,3.73
2022-11-01T11:51:47.962Z,3.70
2022-11-01T11:54:21.774Z,4.50
2022-11-01T11:56:25.076Z,2.70
2022-11-01T11:58:30.490Z,4.50
2022-11-01T12:00:34.749Z,5.30
2022-11-01T12:02:41.877Z,3.20
2022-11-01T12:04:49.676Z,4.07
2022-11-01T12:06:54.084Z,3.70
2022-11-01T12:08:58.760Z,4.37
2022-11-01T12:11:01.932Z,7.17
2022-11-01T12:13:23.885Z,4.77
2022-11-01T12:15:28.163Z,5.17
2022-11-01T12:17:34.399Z,2.83
2022-11-01T12:19:38.141Z,3.10
2022-11-01T12:21:44.175Z,3.50
2022-11-01T12:23:49.483Z,6.10
2022-11-01T12:25:53.184Z,7.20
2022-11-01T12:27:59.924Z,4.27
2022-11-01T12:30:08.435Z,4.03
2022-11-01T12:32:16.326Z,4.70
2022-11-01T12:34:23.102Z,3.63
2022-11-01T12:36:33.319Z,4.87
2022-11-01T12:38:43.127Z,4.23
2022-11-01T12:40:51.249Z,4.70
2022-11-01T12:42:58.167Z,5.70
2022-11-01T12:45:09.600Z,4.13
2022-11-01T12:47:17.893Z,5.77
2022-11-01T12:49:31.931Z,4.63
2022-11-01T12:51:38.635Z,6.87
2022-11-01T12:53:58.832Z,5.33
2022-11-01T12:56:08.839Z,4.07
2022-11-01T12:58:16.794Z,3.50
2022-11-01T13:00:24.948Z,7.43
2022-11-01T13:02:40.326Z,6.50
2022-11-01T13:04:49.887Z,5.07
2022-11-01T13:07:12.680Z,7.23
2022-11-01T13:09:21.604Z,6.20
2022-11-01T13:11:33.204Z,5.57
2022-11-01T13:13:41.878Z,4.83
2022-11-01T13:15:57.078Z,6.97
2022-11-01T13:18:08.966Z,10.27
2022-11-01T13:20:26.088Z,7.20
2022-11-01T13:22:34.727Z,6.30
2022-11-01T13:24:46.385Z,9.00
2022-11-01T13:26:54.770Z,8.43
2022-11-01T13:29:04.585Z,4.57
2022-11-01T13:31:12.490Z,4.33
2022-11-01T13:33:22.305Z,4.37
2022-11-01T13:35:40.219Z,4.90
2022-11-01T13:37:49.023Z,4.70
2022-11-01T13:40:18.705Z,5.57
2022-11-01T13:42:25.849Z,6.13
2022-11-01T13:44:32.354Z,4.30
2022-11-01T13:47:08.282Z,6.97
2022-11-01T13:49:33.474Z,4.83
2022-11-01T13:51:40.354Z,13.73
2022-11-01T13:53:46.845Z,8.07
2022-11-01T13:55:55.097Z,15.33
2022-11-01T13:57:59.966Z,14.50
2022-11-01T14:00:06.891Z,8.67
2022-11-01T14:02:55.223Z,7.03
2022-11-01T14:04:59.018Z,10.87
2022-11-01T14:07:16.224Z,8.03
2022-11-01T14:09:33.651Z,12.27
2022-11-01T14:11:47.374Z,5.40
2022-11-01T14:13:52.007Z,5.50
2022-11-01T14:16:20.827Z,6.30
2022-11-01T14:18:24.604Z,7.87
2022-11-01T14:20:54.175Z,7.80
2022-11-01T14:22:57.658Z,5.03
2022-11-01T14:25:01.830Z,3.50
2022-11-01T14:27:35.620Z,3.07
2022-11-01T14:29:43.949Z,6.37
2022-11-01T14:31:47.950Z,3.53
2022-11-01T14:33:54.897Z,4.93
2022-11-01T14:36:04.128Z,4.37
2022-11-01T14:38:09.153Z,5.43
2022-11-01T14:40:22.167Z,6.60
2022-11-01T14:42:39.407Z,5.50
2022-11-01T14:44:49.688Z,3.20
2022-11-01T14:46:55.933Z,5.80
2022-11-01T14:49:02.688Z,5.43
2022-11-01T14:51:11.869Z,6.40
2022-11-01T14:53:23.604Z,5.00
2022-11-01T14:55:31.511Z,6.83
2022-11-01T14:57:35.783Z,3.97
2022-11-01T14:59:38.867Z,4.33
2022-11-01T15:01:47.933Z,5.23
2022-11-01T15:03:54.885Z,5.63
2022-11-01T15:05:58.293Z,3.63
2022-11-01T15:08:01.841Z,3.30
2022-11-01T15:10:07.722Z,3.87
2022-11-01T15:12:12.204Z,7.33
2022-11-01T15:14:22.003Z,6.10
2022-11-01T15:16:26.793Z,5.90
2022-11-01T15:18:31.974Z,4.87
2022-11-01T15:20:38.872Z,3.40
2022-11-01T15:22:42.993Z,9.80
2022-11-01T15:24:47.297Z,4.30
2022-11-01T15:26:50.955Z,2.93
2022-11-01T15:28:56.146Z,4.93
2022-11-01T15:31:02.127Z,4.10
2022-11-01T15:33:16.897Z,10.03
2022-11-01T15:35:23.992Z,5.90
2022-11-01T15:37:32.569Z,5.07
2022-11-01T15:39:37.824Z,6.17
2022-11-01T15:41:40.866Z,4.90
2022-11-01T15:43:52.153Z,4.90
2022-11-01T15:45:57.957Z,5.93
2022-11-01T15:48:03.931Z,5.33
2022-11-01T15:50:07.936Z,7.17
2022-11-01T15:52:18.630Z,4.00
2022-11-01T15:54:32.186Z,6.93
2022-11-01T15:56:43.625Z,10.30
2022-11-01T15:58:49.151Z,5.23
2022-11-01T16:00:59.798Z,5.63
2022-11-01T16:03:06.392Z,6.30
2022-11-01T16:05:10.498Z,4.57
2022-11-01T16:07:18.541Z,4.40
2022-11-01T16:09:34.752Z,4.63
2022-11-01T16:11:38.601Z,4.13
2022-11-01T16:13:42.141Z,5.40
2022-11-01T16:15:59.931Z,8.00
2022-11-01T16:18:15.847Z,6.73
2022-11-01T16:20:31.869Z,4.57
2022-11-01T16:22:38.855Z,8.07
2022-11-01T16:24:42.441Z,4.10
2022-11-01T16:26:55.602Z,11.20
2022-11-01T16:28:58.771Z,15.07
2022-11-01T16:31:01.975Z,14.70
2022-11-01T16:33:23.872Z,8.70
2022-11-01T16:35:32.544Z,9.17
2022-11-01T16:37:44.664Z,11.43
2022-11-01T16:39:48.125Z,17.80
2022-11-01T16:41:52.668Z,7.00
2022-11-01T16:43:56.896Z,11.33
2022-11-01T16:46:04.782Z,49.83
2022-11-01T16:48:18.564Z,12.40
2022-11-01T16:50:24.959Z,18.70
2022-11-01T16:52:28.119Z,13.00
2022-11-01T16:54:33.304Z,27.10
2022-11-01T16:56:39.156Z,14.50
2022-11-01T16:58:42.684Z,31.10
2022-11-01T17:00:54.544Z,176.37
2022-11-01T17:02:59.496Z,112.53
2022-11-01T17:05:06.666Z,40.47
2022-11-01T17:07:13.016Z,32.40
2022-11-01T17:09:18.170Z,17.57
2022-11-01T17:11:22.729Z,16.90
2022-11-01T17:13:25.914Z,14.40
2022-11-01T17:15:29.478Z,16.03
2022-11-01T17:17:32.597Z,6.87
2022-11-01T17:19:37.480Z,8.43
2022-11-01T17:21:40.770Z,7.50
2022-11-01T17:23:44.083Z,9.93
2022-11-01T17:25:51.131Z,9.87
2022-11-01T17:27:58.143Z,7.53
2022-11-01T17:30:01.389Z,7.53
2022-11-01T17:32:08.957Z,11.40
2022-11-01T17:34:12.162Z,12.50
2022-11-01T17:36:18.827Z,10.73
2022-11-01T17:38:30.058Z,11.87
2022-11-01T17:40:33.835Z,8.10
2022-11-01T17:42:36.971Z,11.63
2022-11-01T17:44:41.418Z,8.37
2022-11-01T17:46:44.751Z,9.17
2022-11-01T17:48:48.232Z,6.50
2022-11-01T17:50:52.402Z,55.60
2022-11-01T17:52:55.836Z,40.43
2022-11-01T17:54:58.955Z,19.93
2022-11-01T17:57:02.170Z,17.40
2022-11-01T17:59:05.462Z,16.80
2022-11-01T18:01:10.720Z,19.00
2022-11-01T18:03:16.663Z,17.33
2022-11-01T18:05:19.775Z,11.80
2022-11-01T18:07:23.083Z,14.27
2022-11-01T18:09:27.083Z,12.30
2022-11-01T18:11:40.083Z,11.33
2022-11-01T18:13:50.270Z,10.40
2022-11-01T18:15:57.511Z,6.83
2022-11-01T18:18:15.076Z,8.67
2022-11-01T18:20:24.537Z,7.67
2022-11-01T18:22:35.959Z,18.13
2022-11-01T18:24:44.235Z,8.20
2022-11-01T18:26:47.839Z,7.73
2022-11-01T18:28:51.742Z,6.53
2022-11-01T18:30:57.153Z,6.47
2022-11-01T18:33:10.974Z,8.17
2022-11-01T18:35:24.009Z,4.70
2022-11-01T18:37:35.229Z,5.30
2022-11-01T18:39:46.899Z,7.57
2022-11-01T18:41:51.253Z,7.70
2022-11-01T18:43:55.474Z,15.57
2022-11-01T18:48:28.363Z,8.87
2022-11-01T18:50:32.309Z,7.20
2022-11-01T18:52:36.020Z,8.10
2022-11-01T18:54:53.564Z,25.50
2022-11-01T18:57:08.715Z,18.00
2022-11-01T18:59:14.593Z,42.17
2022-11-01T19:01:19.919Z,14.60
2022-11-01T19:03:24.287Z,10.27
2022-11-01T19:05:28.815Z,10.93
2022-11-01T19:07:57.055Z,20.30
2022-11-01T19:09:58.520Z,25.67
2022-11-01T19:12:03.492Z,20.90
2022-11-01T19:14:07.275Z,20.90
2022-11-01T19:16:13.676Z,15.63
2022-11-01T19:18:19.626Z,16.57
2022-11-01T19:20:25.186Z,23.77
2022-11-01T19:22:40.678Z,18.83
2022-11-01T19:24:44.231Z,19.40
2022-11-01T19:26:47.461Z,24.20
2022-11-01T19:28:52.664Z,13.90
2022-11-01T19:30:57.726Z,10.50
2022-11-01T19:33:04.407Z,8.37
2022-11-01T19:35:16.871Z,9.67
2022-11-01T19:37:29.177Z,17.53
2022-11-01T19:39:40.682Z,15.60
2022-11-01T19:41:44.900Z,13.13
2022-11-01T19:43:48.309Z,11.80
2022-11-01T19:45:52.907Z,13.27
2022-11-01T19:47:57.240Z,11.20
2022-11-01T19:50:00.519Z,12.43
2022-11-01T19:52:23.175Z,13.80
2022-11-01T19:54:26.232Z,9.57
2022-11-01T19:56:30.805Z,12.83
2022-11-01T19:58:42.131Z,30.80
2022-11-01T20:00:45.742Z,29.83
2022-11-01T20:02:50.756Z,24.63
2022-11-01T20:04:57.580Z,27.60
2022-11-01T20:07:03.127Z,24.50
2022-11-01T20:09:10.044Z,22.67
2022-11-01T20:11:14.732Z,12.43
2022-11-01T20:13:19.200Z,15.33
2022-11-01T20:15:22.568Z,15.73
2022-11-01T20:17:26.396Z,15.17
2022-11-01T20:19:31.200Z,14.13
2022-11-01T20:21:34.680Z,15.63
2022-11-01T20:23:38.960Z,19.43
2022-11-01T20:25:42.435Z,20.77
2022-11-01T20:27:45.478Z,24.50
2022-11-01T20:29:49.996Z,20.83
2022-11-01T20:31:53.831Z,20.57
2022-11-01T20:33:57.703Z,18.00
2022-11-01T20:36:00.986Z,15.50
2022-11-01T20:38:04.197Z,13.50
2022-11-01T20:40:09.150Z,13.70
2022-11-01T20:42:15.162Z,11.13
2022-11-01T20:44:18.663Z,10.50
2022-11-01T20:46:24.066Z,14.00
2022-11-01T20:48:27.346Z,13.10
2022-11-01T20:50:33.792Z,11.13
2022-11-01T20:52:40.421Z,11.70
2022-11-01T20:54:46.721Z,11.73
2022-11-01T20:56:50.807Z,11.27
2022-11-01T20:58:56.403Z,17.00
2022-11-01T21:00:59.539Z,16.40
2022-11-01T21:03:08.948Z,9.70
2022-11-01T21:05:21.510Z,8.83
2022-11-01T21:07:26.580Z,10.10
2022-11-01T21:09:33.432Z,10.17
2022-11-01T21:11:44.659Z,9.23
2022-11-01T21:13:48.228Z,11.10
2022-11-01T21:15:53.796Z,8.43
2022-11-01T21:17:59.210Z,10.70
2022-11-01T21:20:03.848Z,10.47
2022-11-01T21:22:14.425Z,13.07
2022-11-01T21:24:33.674Z,10.60
2022-11-01T21:26:40.005Z,13.07
2022-11-01T21:28:46.645Z,10.27
2022-11-01T21:30:50.099Z,15.03
2022-11-01T21:32:53.434Z,13.50
2022-11-01T21:34:57.452Z,10.97
2022-11-01T21:37:02.246Z,10.10
2022-11-01T21:39:13.721Z,11.20
2022-11-01T21:41:27.070Z,12.20
2022-11-01T21:43:32.215Z,9.20
2022-11-01T21:45:35.516Z,11.33
2022-11-01T21:47:44.631Z,11.47
2022-11-01T21:49:49.363Z,39.83
2022-11-01T21:51:53.248Z,20.03
2022-11-01T21:54:01.628Z,14.70
2022-11-01T21:56:08.142Z,14.13
2022-11-01T21:58:11.132Z,17.43
2022-11-01T22:00:15.749Z,10.87
2022-11-01T22:02:19.241Z,9.50
2022-11-01T22:04:23.413Z,10.73
2022-11-01T22:06:28.032Z,17.10
2022-11-01T22:08:31.086Z,11.83
2022-11-01T22:10:35.774Z,10.43
2022-11-01T22:12:38.865Z,8.73
2022-11-01T22:14:42.077Z,12.00
2022-11-01T22:16:45.302Z,19.47
2022-11-01T22:18:48.440Z,13.83
2022-11-01T22:20:51.476Z,15.30
2022-11-01T22:22:55.017Z,19.20
2022-11-01T22:24:58.241Z,14.03
2022-11-01T22:27:03.208Z,14.00
2022-11-01T22:29:06.977Z,12.93
2022-11-01T22:31:10.039Z,14.77
2022-11-01T22:33:13.422Z,20.73
2022-11-01T22:35:16.457Z,14.13
2022-11-01T22:37:19.496Z,14.60
2022-11-01T22:39:25.062Z,13.17
2022-11-01T22:41:33.025Z,15.13
2022-11-01T22:43:40.018Z,7.73
2022-11-01T22:46:03.147Z,9.20
2022-11-01T22:48:19.120Z,10.73
2022-11-01T22:50:31.652Z,12.10
2022-11-01T22:52:48.573Z,12.93
2022-11-01T22:55:19.046Z,9.13
2022-11-01T22:57:34.613Z,10.70
2022-11-01T22:59:46.905Z,9.53
2022-11-01T23:01:51.274Z,8.63
2022-11-01T23:03:55.060Z,12.80
2022-11-01T23:06:00.801Z,11.07
2022-11-01T23:08:14.455Z,8.80
2022-11-01T23:10:29.239Z,11.33
2022-11-01T23:12:50.541Z,9.97
2022-11-01T23:14:55.404Z,13.60
2022-11-01T23:16:58.340Z,8.50
2022-11-01T23:19:03.507Z,9.90
2022-11-01T23:21:10.702Z,11.60
2022-11-01T23:23:17.153Z,11.67
2022-11-01T23:25:20.163Z,14.57
2022-11-01T23:27:26.285Z,16.13
2022-11-01T23:29:29.583Z,13.43
2022-11-01T23:31:34.082Z,14.93
2022-11-01T23:33:40.733Z,15.13
2022-11-01T23:35:45.725Z,8.80
2022-11-01T23:37:49.365Z,13.33
2022-11-01T23:39:52.325Z,10.60
2022-11-01T23:41:55.296Z,11.97
2022-11-01T23:43:59.430Z,18.00
2022-11-01T23:46:02.613Z,11.17
2022-11-01T23:48:09.918Z,24.73
2022-11-01T23:50:17.366Z,20.77
2022-11-01T23:52:38.858Z,20.73
2022-11-01T23:54:44.022Z,20.43
2022-11-01T23:56:47.346Z,26.20
2022-11-01T23:58:57.378Z,23.87
